Flight Track Log - Related Links

Times and Time Zones

All times are in EDT time to prevent confusion due to time zone crossing. See the AWE1940 flight status page for this flight to view local times or setup timezone preferences in your user account.

Time Position Orientation Groundspeed Altitude Reporting Facility
EDT Latitude Longitude Course Direction KTS MPH feet Rate Location/Type
Fri 10:28:18 PM 35.1950 -80.9356 177° South 174 200 1,600  Level Atlanta Center
Fri 10:28:49 PM 35.1719 -80.9339 177° South 173 199 2,800 1,978 Climbing Atlanta Center
Fri 10:29:49 PM 35.1392 -80.8742 124° Southeast 260 299 4,600 2,098 Climbing Atlanta Center
Fri 10:30:52 PM 35.1786 -80.7861 61° Northeast 289 333 7,100 2,390 Climbing Atlanta Center
Fri 10:31:52 PM 35.2078 -80.7036 67° East 294 338 9,500 2,200 Climbing Atlanta Center
Fri 10:32:52 PM 35.2467 -80.6081 63° Northeast 304 350 11,500 2,000 Climbing Atlanta Center
Fri 10:33:52 PM 35.2917 -80.4992 63° Northeast 331 381 13,500 2,250 Climbing Atlanta Center
Fri 10:34:52 PM 35.3383 -80.3803 64° Northeast 364 419 16,000 2,344 Climbing Atlanta Center
Fri 10:36:23 PM 35.4100 -80.1997 64° Northeast 384 442 19,400 2,132 Climbing Washington Center
Fri 10:37:24 PM 35.4553 -80.0517 69° East 399 459 21,400 1,815 Climbing Washington Center
Fri 10:38:22 PM 35.4869 -79.9311 72° East 405 466 23,000 958 Climbing Washington Center
Fri 10:39:23 PM 35.5233 -79.7903 72° East 416 479 23,300 958 Climbing Washington Center
Fri 10:40:21 PM 35.5386 -79.6431 83° East 423 487 24,900 1,500 Climbing Washington Center
Fri 10:41:23 PM 35.5333 -79.4894 92° East 433 498 26,300 1,050 Climbing Washington Center
Fri 10:42:21 PM 35.6081 -79.3731 52° Northeast 426 490 27,000 403 Climbing Washington Center
Fri 10:43:22 PM 35.7325 -79.3356 14° North 383 441 27,100 550 Climbing Washington Center
Fri 10:44:21 PM 35.8550 -79.2850 18° North 414 476 28,100 1,200 Climbing Washington Center
Fri 10:45:22 PM 35.9797 -79.2317 19° North 442 509 29,500 1,426 Climbing Washington Center
Fri 10:46:23 PM 36.1000 -79.1858 17° North 453 521 31,000 744 Climbing Washington Center
Fri 10:47:23 PM 36.2225 -79.1347 19° North 453 521 31,000  Level Washington Center
Fri 10:48:24 PM 36.3431 -79.0861 18° North 453 521 31,000  Level Washington Center
Fri 10:49:21 PM 36.4653 -79.0372 18° North 448 516 31,000 508 Level Washington Center
Fri 10:50:22 PM 36.5878 -78.9911 17° North 453 521 32,000 492 Climbing Washington Center
Fri 10:51:23 PM 36.7019 -78.9339 22° Northeast 448 516 32,000  Level Washington Center
Fri 10:52:21 PM 36.8222 -78.8844 18° North 448 516 32,000 350 Level Washington Center
Fri 10:53:23 PM 36.9594 -78.8306 17° North 456 525 32,700 950 Climbing Washington Center
Fri 10:54:21 PM 37.0797 -78.7811 18° North 461 531 33,900 1,008 Climbing Washington Center
Fri 10:55:22 PM 37.2019 -78.7286 19° North 461 531 34,700 541 Climbing Washington Center
Fri 10:56:23 PM 37.3094 -78.6836 18° North 461 531 35,000 151 Climbing Washington Center
Fri 10:57:21 PM 37.4319 -78.6336 18° North 461 531 35,000  Level Washington Center
Fri 10:58:21 PM 37.5542 -78.5808 19° North 453 521 35,000  Level Washington Center
Fri 10:59:23 PM 37.6869 -78.5283 17° North 459 528 35,000  Level Washington Center
Fri 11:00:23 PM 37.8069 -78.4753 19° North 453 521 35,000  Level Washington Center
Fri 11:01:23 PM 37.9292 -78.4272 17° North 448 516 35,000  Level Washington Center
Fri 11:02:22 PM 38.0428 -78.3786 19° North 448 516 35,000  Level Washington Center
Fri 11:03:21 PM 38.1631 -78.3250 19° North 448 516 35,000  Level Washington Center
Fri 11:04:24 PM 38.2831 -78.2739 18° North 448 516 35,000  Level Washington Center
Fri 11:05:21 PM 38.4031 -78.2225 19° North 448 516 35,000  Level Washington Center
Fri 11:06:22 PM 38.5250 -78.1686 19° North 448 516 35,000  Level Washington Center
Fri 11:07:23 PM 38.6450 -78.1169 19° North 448 516 35,000  Level Washington Center
Fri 11:08:21 PM 38.7650 -78.0650 19° North 453 521 35,000  Level Washington Center
Fri 11:09:22 PM 38.8744 -78.0181 18° North 453 521 35,000  Level Washington Center
Fri 11:10:22 PM 39.0003 -77.9689 17° North 458 527 35,000  Level Washington Center
Fri 11:11:21 PM 39.1203 -77.9111 20° North 458 527 35,000  Level Washington Center
Fri 11:12:22 PM 39.2422 -77.8589 18° North 463 533 35,000  Level Washington Center
Fri 11:13:21 PM 39.3661 -77.8036 19° North 463 533 35,000  Level Washington Center
Fri 11:14:55 PM 39.5692 -77.7147 19° North 470 541 35,000  Level New York Center
Fri 11:15:55 PM 39.6892 -77.6617 19° North 475 547 35,000  Level New York Center
Fri 11:16:56 PM 39.8092 -77.6058 20° North 464 534 35,000  Level New York Center
Fri 11:17:56 PM 39.9333 -77.5503 19° North 464 534 35,000  Level New York Center
Fri 11:18:56 PM 40.0575 -77.4944 19° North 464 534 35,000  Level New York Center
Fri 11:19:55 PM 40.1758 -77.4297 23° Northeast 458 527 35,000  Level New York Center
Fri 11:20:56 PM 40.2875 -77.3317 34° Northeast 464 534 35,000  Level New York Center
Fri 11:21:56 PM 40.3822 -77.2425 36° Northeast 470 541 35,000  Level New York Center
Fri 11:22:53 PM 40.4919 -77.1408 35° Northeast 475 547 35,000  Level New York Center
Fri 11:23:55 PM 40.5994 -77.0414 35° Northeast 475 547 35,000  Level New York Center
Fri 11:24:56 PM 40.7089 -76.9392 35° Northeast 475 547 35,000  Level New York Center
Fri 11:25:56 PM 40.8164 -76.8364 36° Northeast 475 547 35,000 -102 Level New York Center
Fri 11:26:54 PM 40.9278 -76.7336 35° Northeast 475 547 34,800 -610 Descending New York Center
Fri 11:27:54 PM 41.0394 -76.6281 35° Northeast 475 547 33,800 -1,008 Descending New York Center
Fri 11:28:53 PM 41.1464 -76.5269 35° Northeast 475 547 32,800 -1,240 Descending New York Center
Fri 11:29:55 PM 41.2533 -76.4283 35° Northeast 475 547 31,300 -1,721 Descending New York Center
Fri 11:30:55 PM 41.3778 -76.3089 36° Northeast 480 552 29,300 -2,118 Descending New York Center
Fri 11:31:54 PM 41.4911 -76.1992 36° Northeast 502 578 27,100 -2,078 Descending New York Center
Fri 11:33:28 PM 41.6617 -76.0333 36° Northeast 488 562 24,000 -1,200 Descending Boston Center
Fri 11:34:29 PM 41.7692 -75.9281 36° Northeast 482 555 24,000  Level Boston Center
Fri 11:35:31 PM 41.8650 -75.7967 46° Northeast 482 555 24,000  Level Boston Center
Fri 11:36:29 PM 41.9383 -75.6358 58° Northeast 487 560 24,000  Level Boston Center
Fri 11:37:30 PM 42.0097 -75.4747 59° Northeast 493 567 24,000  Level Boston Center
Fri 11:38:30 PM 42.0847 -75.3131 58° Northeast 498 573 24,000 -102 Level Boston Center
Fri 11:39:28 PM 42.1553 -75.1539 59° Northeast 498 573 23,800 -1,109 Descending Boston Center
Fri 11:40:29 PM 42.2233 -75.0056 58° Northeast 489 563 21,800 -2,281 Descending Boston Center
Fri 11:41:29 PM 42.2892 -74.8539 60° Northeast 474 545 19,200 -2,500 Descending Boston Center
Fri 11:42:29 PM 42.3442 -74.7239 60° Northeast 450 518 16,800 -2,564 Descending Boston Center
Fri 11:43:26 PM 42.4072 -74.5828 59° Northeast 420 483 14,200 -2,331 Descending Boston Center
Fri 11:44:30 PM 42.4617 -74.4553 60° Northeast 410 472 12,100 -2,098 Descending Boston Center
Fri 11:45:29 PM 42.4936 -74.3042 74° East 382 440 9,900 -1,576 Descending Boston Center
Fri 11:46:28 PM 42.5078 -74.1892 80° East 361 415 9,000 -1,261 Descending Boston Center
Fri 11:47:28 PM 42.5242 -74.0683 80° East 311 358 7,400 -1,750 Descending Boston Center
Fri 11:48:28 PM 42.5361 -73.9672 81° East 295 339 5,500 -1,820 Descending Boston Center
Fri 11:49:30 PM 42.5481 -73.8519 82° East 289 333 3,700 -1,550 Descending Boston Center
Fri 11:50:28 PM 42.5819 -73.7908 53° Northeast 212 244 2,400 -850 Descending Boston Center
Fri 11:51:30 PM 42.6256 -73.8003 351° North 180 207 2,000 -462 Descending Boston Center
Fri 11:52:38 PM 42.6797 -73.8042 357° North 125 144 1,400 -614 Descending Boston Center
Fri 11:53:37 PM 42.7172 -73.8050 359° North 133 153 700 -712 Descending Boston Center

Login

Don't have an account? Register now (free) for customized features, flight alerts, and more!